createdAt,value
2017-10-16T00:00:52.095Z,1016.85
2017-10-16T00:01:52.088Z,1016.86
2017-10-16T00:02:52.085Z,1016.86
2017-10-16T00:03:52.078Z,1016.88
2017-10-16T00:04:52.072Z,1016.93
2017-10-16T00:05:52.076Z,1016.93
2017-10-16T00:06:52.059Z,1016.94
2017-10-16T00:07:52.059Z,1016.95
2017-10-16T00:08:52.050Z,1017.01
2017-10-16T00:09:52.042Z,1017.01
2017-10-16T00:10:52.039Z,1017.00
2017-10-16T00:11:52.032Z,1016.95
2017-10-16T00:12:52.028Z,1016.86
2017-10-16T00:13:52.023Z,1016.85
2017-10-16T00:14:52.018Z,1016.84
2017-10-16T00:15:52.010Z,1016.89
2017-10-16T00:16:52.003Z,1016.92
2017-10-16T00:17:51.998Z,1016.87
2017-10-16T00:18:52.000Z,1016.82
2017-10-16T00:19:51.990Z,1016.79
2017-10-16T00:20:51.981Z,1016.73
2017-10-16T00:21:51.976Z,1016.75
2017-10-16T00:22:51.971Z,1016.75
2017-10-16T00:23:51.964Z,1016.78
2017-10-16T00:24:51.960Z,1016.73
2017-10-16T00:25:51.953Z,1016.79
2017-10-16T00:26:51.947Z,1016.79
2017-10-16T00:27:51.937Z,1016.77
2017-10-16T00:28:51.935Z,1016.71
2017-10-16T00:29:51.938Z,1016.70
2017-10-16T00:30:51.922Z,1016.74
2017-10-16T00:31:51.912Z,1016.71
2017-10-16T00:32:51.914Z,1016.75
2017-10-16T00:33:51.910Z,1016.76
2017-10-16T00:34:51.900Z,1016.73
2017-10-16T00:35:51.902Z,1016.72
2017-10-16T00:36:51.888Z,1016.72
2017-10-16T00:37:51.882Z,1016.72
2017-10-16T00:38:51.884Z,1016.73
2017-10-16T00:39:51.872Z,1016.72
2017-10-16T00:40:51.866Z,1016.74
2017-10-16T00:41:51.858Z,1016.71
2017-10-16T00:42:51.860Z,1016.73
2017-10-16T00:43:51.848Z,1016.73
2017-10-16T00:44:51.844Z,1016.75
2017-10-16T00:45:51.836Z,1016.72
2017-10-16T00:46:51.828Z,1016.72
2017-10-16T00:47:51.823Z,1016.68
2017-10-16T00:48:51.821Z,1016.66
2017-10-16T00:49:51.819Z,1016.71
2017-10-16T00:50:51.806Z,1016.72
2017-10-16T00:51:51.802Z,1016.68
2017-10-16T00:52:51.794Z,1016.65
2017-10-16T00:53:51.781Z,1016.63
2017-10-16T00:54:51.782Z,1016.68
2017-10-16T00:55:51.794Z,1016.75
2017-10-16T00:56:51.769Z,1016.75
2017-10-16T00:57:51.762Z,1016.73
2017-10-16T00:58:51.761Z,1016.72
2017-10-16T00:59:51.752Z,1016.65
2017-10-16T01:00:51.748Z,1016.64
2017-10-16T01:01:51.740Z,1016.63
2017-10-16T01:02:51.734Z,1016.71
2017-10-16T01:03:51.728Z,1016.77
2017-10-16T01:04:51.724Z,1016.79
2017-10-16T01:05:51.720Z,1016.79
2017-10-16T01:06:51.712Z,1016.84
2017-10-16T01:07:51.705Z,1016.86
2017-10-16T01:08:51.702Z,1016.87
2017-10-16T01:09:51.693Z,1016.83
2017-10-16T01:10:51.689Z,1016.81
2017-10-16T01:11:51.682Z,1016.71
2017-10-16T01:12:51.677Z,1016.75
2017-10-16T01:13:51.668Z,1016.66
2017-10-16T01:14:51.669Z,1016.64
2017-10-16T01:15:51.658Z,1016.64
2017-10-16T01:16:51.650Z,1016.60
2017-10-16T01:17:51.647Z,1016.58
2017-10-16T01:18:51.639Z,1016.67
2017-10-16T01:19:51.641Z,1016.71
2017-10-16T01:20:51.630Z,1016.73
2017-10-16T01:21:51.624Z,1016.70
2017-10-16T01:22:51.625Z,1016.66
2017-10-16T01:23:51.611Z,1016.64
2017-10-16T01:24:51.614Z,1016.60
2017-10-16T01:25:51.597Z,1016.57
2017-10-16T01:26:51.593Z,1016.59
2017-10-16T01:27:51.585Z,1016.63
2017-10-16T01:28:51.584Z,1016.60
2017-10-16T01:29:51.578Z,1016.61
2017-10-16T01:30:51.570Z,1016.63
2017-10-16T01:31:51.564Z,1016.60
2017-10-16T01:32:51.566Z,1016.56
2017-10-16T01:33:51.554Z,1016.58
2017-10-16T01:34:51.548Z,1016.53
2017-10-16T01:35:51.545Z,1016.50
2017-10-16T01:36:51.538Z,1016.50
2017-10-16T01:37:51.532Z,1016.50
2017-10-16T01:38:51.526Z,1016.48
2017-10-16T01:39:51.525Z,1016.42
2017-10-16T01:40:51.515Z,1016.41
2017-10-16T01:41:51.514Z,1016.34
2017-10-16T01:42:51.502Z,1016.36
2017-10-16T01:43:51.499Z,1016.37
2017-10-16T01:44:51.493Z,1016.41
2017-10-16T01:45:51.487Z,1016.44
2017-10-16T01:46:51.482Z,1016.45
2017-10-16T01:47:51.485Z,1016.46
2017-10-16T01:48:51.483Z,1016.46
2017-10-16T01:49:51.477Z,1016.49
2017-10-16T01:50:51.479Z,1016.50
2017-10-16T01:51:51.457Z,1016.48
2017-10-16T01:52:51.459Z,1016.50
2017-10-16T01:53:51.471Z,1016.45
2017-10-16T01:54:51.443Z,1016.49
2017-10-16T01:55:51.432Z,1016.49
2017-10-16T01:56:51.426Z,1016.44
2017-10-16T01:57:51.424Z,1016.40
2017-10-16T01:58:51.417Z,1016.42
2017-10-16T01:59:51.410Z,1016.39
2017-10-16T02:00:51.397Z,1016.36
2017-10-16T02:01:51.396Z,1016.40
2017-10-16T02:02:51.391Z,1016.41
2017-10-16T02:03:51.387Z,1016.39
2017-10-16T02:04:51.382Z,1016.45
2017-10-16T02:05:51.382Z,1016.46
2017-10-16T02:06:51.370Z,1016.53
2017-10-16T02:07:51.362Z,1016.56
2017-10-16T02:08:51.362Z,1016.55
2017-10-16T02:09:51.356Z,1016.56
2017-10-16T02:10:51.358Z,1016.53
2017-10-16T02:11:51.348Z,1016.55
2017-10-16T02:12:51.341Z,1016.62
2017-10-16T02:13:51.332Z,1016.59
2017-10-16T02:14:51.323Z,1016.58
2017-10-16T02:15:51.328Z,1016.60
2017-10-16T02:16:51.331Z,1016.64
2017-10-16T02:17:51.308Z,1016.64
2017-10-16T02:18:51.306Z,1016.55
2017-10-16T02:19:51.288Z,1016.54
2017-10-16T02:20:51.281Z,1016.58
2017-10-16T02:21:51.280Z,1016.57
2017-10-16T02:22:51.277Z,1016.52
2017-10-16T02:23:51.269Z,1016.49
2017-10-16T02:24:51.279Z,1016.49
2017-10-16T02:25:51.263Z,1016.45
2017-10-16T02:26:51.265Z,1016.43
2017-10-16T02:27:51.251Z,1016.45
2017-10-16T02:28:51.245Z,1016.46
2017-10-16T02:29:51.291Z,1016.51
2017-10-16T02:30:51.239Z,1016.48
2017-10-16T02:31:51.225Z,1016.47
2017-10-16T02:32:51.226Z,1016.42
2017-10-16T02:33:51.220Z,1016.43
2017-10-16T02:34:51.215Z,1016.42
2017-10-16T02:35:51.209Z,1016.40
2017-10-16T02:36:51.201Z,1016.44
2017-10-16T02:37:51.200Z,1016.51
2017-10-16T02:38:51.189Z,1016.53
2017-10-16T02:39:51.186Z,1016.52
2017-10-16T02:40:51.181Z,1016.48
2017-10-16T02:41:51.174Z,1016.44
2017-10-16T02:42:51.169Z,1016.40
2017-10-16T02:43:51.162Z,1016.46
2017-10-16T02:44:51.157Z,1016.38
2017-10-16T02:45:51.183Z,1016.41
2017-10-16T02:46:51.146Z,1016.38
2017-10-16T02:47:51.142Z,1016.31
2017-10-16T02:48:51.133Z,1016.34
2017-10-16T02:49:51.130Z,1016.32
2017-10-16T02:50:51.128Z,1016.33
2017-10-16T02:51:51.117Z,1016.34
2017-10-16T02:52:51.110Z,1016.36
2017-10-16T02:53:51.108Z,1016.35
2017-10-16T02:54:51.100Z,1016.32
2017-10-16T02:55:51.094Z,1016.33
2017-10-16T02:56:51.110Z,1016.30
2017-10-16T02:57:51.091Z,1016.27
2017-10-16T02:58:51.077Z,1016.30
2017-10-16T02:59:51.079Z,1016.26
2017-10-16T03:00:51.067Z,1016.27
2017-10-16T03:01:51.062Z,1016.30
2017-10-16T03:02:51.055Z,1016.34
2017-10-16T03:03:51.047Z,1016.28
2017-10-16T03:04:51.043Z,1016.29
2017-10-16T03:05:51.044Z,1016.34
2017-10-16T03:06:51.031Z,1016.38
2017-10-16T03:07:51.029Z,1016.37
2017-10-16T03:08:51.019Z,1016.37
2017-10-16T03:09:51.016Z,1016.43
2017-10-16T03:10:51.008Z,1016.42
2017-10-16T03:11:51.000Z,1016.48
2017-10-16T03:12:50.998Z,1016.52
2017-10-16T03:13:50.993Z,1016.59
2017-10-16T03:14:50.992Z,1016.61
2017-10-16T03:15:50.988Z,1016.63
2017-10-16T03:16:50.977Z,1016.64
2017-10-16T03:17:50.975Z,1016.59
2017-10-16T03:18:50.970Z,1016.63
2017-10-16T03:19:50.961Z,1016.62
2017-10-16T03:20:50.953Z,1016.66
2017-10-16T03:21:50.956Z,1016.68
2017-10-16T03:22:50.943Z,1016.67
2017-10-16T03:23:50.945Z,1016.70
2017-10-16T03:24:50.939Z,1016.71
2017-10-16T03:25:50.937Z,1016.69
2017-10-16T03:26:50.926Z,1016.69
2017-10-16T03:27:50.925Z,1016.68
2017-10-16T03:28:50.922Z,1016.71
2017-10-16T03:29:50.920Z,1016.66
2017-10-16T03:30:50.910Z,1016.67
2017-10-16T03:31:50.899Z,1016.69
2017-10-16T03:32:50.900Z,1016.69
2017-10-16T03:33:50.895Z,1016.67
2017-10-16T03:34:50.891Z,1016.65
2017-10-16T03:35:50.884Z,1016.65
2017-10-16T03:36:50.878Z,1016.65
2017-10-16T03:37:50.874Z,1016.59
2017-10-16T03:38:50.868Z,1016.61
2017-10-16T03:39:50.862Z,1016.59
2017-10-16T03:40:50.858Z,1016.61
2017-10-16T03:41:50.852Z,1016.62
2017-10-16T03:42:50.847Z,1016.57
2017-10-16T03:43:50.845Z,1016.57
2017-10-16T03:44:50.836Z,1016.63
2017-10-16T03:45:50.832Z,1016.62
2017-10-16T03:46:50.831Z,1016.61
2017-10-16T03:47:50.822Z,1016.62
2017-10-16T03:48:50.816Z,1016.64
2017-10-16T03:49:50.810Z,1016.64
2017-10-16T03:50:50.808Z,1016.66
2017-10-16T03:51:50.802Z,1016.68
2017-10-16T03:52:50.797Z,1016.63
2017-10-16T03:53:50.793Z,1016.59
2017-10-16T03:54:50.786Z,1016.61
2017-10-16T03:55:50.781Z,1016.58
2017-10-16T03:56:50.776Z,1016.60
2017-10-16T03:57:50.773Z,1016.59
2017-10-16T03:58:50.768Z,1016.62
2017-10-16T03:59:50.760Z,1016.57
2017-10-16T04:00:50.755Z,1016.56
2017-10-16T04:01:50.752Z,1016.54
2017-10-16T04:02:50.746Z,1016.54
2017-10-16T04:03:50.741Z,1016.46
2017-10-16T04:04:50.740Z,1016.52
2017-10-16T04:05:50.730Z,1016.57
2017-10-16T04:06:50.713Z,1016.58
2017-10-16T04:07:50.724Z,1016.57
2017-10-16T04:08:50.715Z,1016.63
2017-10-16T04:09:50.707Z,1016.64
2017-10-16T04:10:50.710Z,1016.65
2017-10-16T04:11:50.698Z,1016.65
2017-10-16T04:12:50.694Z,1016.63
2017-10-16T04:13:50.691Z,1016.59
2017-10-16T04:14:50.682Z,1016.56
2017-10-16T04:15:50.675Z,1016.56
2017-10-16T04:16:50.670Z,1016.54
2017-10-16T04:17:50.667Z,1016.64
2017-10-16T04:18:50.662Z,1016.65
2017-10-16T04:19:50.655Z,1016.58
2017-10-16T04:20:50.647Z,1016.63
2017-10-16T04:21:50.643Z,1016.59
2017-10-16T04:22:50.640Z,1016.60
2017-10-16T04:23:50.631Z,1016.58
2017-10-16T04:24:50.626Z,1016.57
2017-10-16T04:25:50.620Z,1016.51
2017-10-16T04:26:50.615Z,1016.49
2017-10-16T04:27:50.607Z,1016.55
2017-10-16T04:28:50.603Z,1016.52
2017-10-16T04:29:50.598Z,1016.53
2017-10-16T04:30:50.594Z,1016.52
2017-10-16T04:31:50.587Z,1016.54
2017-10-16T04:32:50.579Z,1016.53
2017-10-16T04:33:50.573Z,1016.56
2017-10-16T04:34:50.571Z,1016.57
2017-10-16T04:35:50.562Z,1016.58
2017-10-16T04:36:50.555Z,1016.62
2017-10-16T04:37:50.551Z,1016.58
2017-10-16T04:38:50.543Z,1016.61
2017-10-16T04:39:50.536Z,1016.57
2017-10-16T04:40:50.531Z,1016.57
2017-10-16T04:41:50.527Z,1016.56
2017-10-16T04:42:50.521Z,1016.60
2017-10-16T04:43:50.548Z,1016.59
2017-10-16T04:44:50.509Z,1016.63
2017-10-16T04:45:50.504Z,1016.56
2017-10-16T04:46:50.498Z,1016.59
2017-10-16T04:47:50.493Z,1016.54
2017-10-16T04:48:50.480Z,1016.55
2017-10-16T04:49:50.479Z,1016.53
2017-10-16T04:50:50.473Z,1016.53
2017-10-16T04:51:50.467Z,1016.50
2017-10-16T04:52:50.461Z,1016.52
2017-10-16T04:53:50.464Z,1016.53
2017-10-16T04:54:50.449Z,1016.55
2017-10-16T04:55:50.442Z,1016.56
2017-10-16T04:56:50.438Z,1016.58
2017-10-16T04:57:50.432Z,1016.54
2017-10-16T04:58:50.447Z,1016.51
2017-10-16T04:59:50.420Z,1016.52
2017-10-16T05:00:50.418Z,1016.48
2017-10-16T05:01:50.410Z,1016.48
2017-10-16T05:02:50.398Z,1016.48
2017-10-16T05:03:50.396Z,1016.52
2017-10-16T05:04:50.390Z,1016.48
2017-10-16T05:05:50.386Z,1016.48
2017-10-16T05:06:50.381Z,1016.51
2017-10-16T05:07:50.375Z,1016.51
2017-10-16T05:08:50.371Z,1016.50
2017-10-16T05:09:50.359Z,1016.49
2017-10-16T05:10:50.356Z,1016.46
2017-10-16T05:11:50.343Z,1016.41
2017-10-16T05:12:50.344Z,1016.44
2017-10-16T05:13:50.337Z,1016.49
2017-10-16T05:14:50.332Z,1016.49
2017-10-16T05:15:50.325Z,1016.50
2017-10-16T05:16:50.317Z,1016.50
2017-10-16T05:17:50.316Z,1016.49
2017-10-16T05:18:50.311Z,1016.47
2017-10-16T05:19:50.292Z,1016.55
2017-10-16T05:20:50.294Z,1016.53
2017-10-16T05:21:51.087Z,1016.54
2017-10-16T05:22:50.283Z,1016.54
2017-10-16T05:23:50.280Z,1016.60
2017-10-16T05:24:50.276Z,1016.59
2017-10-16T05:25:50.266Z,1016.61
2017-10-16T05:26:50.258Z,1016.56
2017-10-16T05:27:50.253Z,1016.60
2017-10-16T05:28:50.248Z,1016.61
2017-10-16T05:29:50.285Z,1016.60
2017-10-16T05:30:50.237Z,1016.58
2017-10-16T05:31:50.266Z,1016.55
2017-10-16T05:32:50.225Z,1016.54
2017-10-16T05:33:50.219Z,1016.54
2017-10-16T05:34:50.215Z,1016.55
2017-10-16T05:35:50.206Z,1016.57
2017-10-16T05:36:50.202Z,1016.53
2017-10-16T05:37:51.092Z,1016.58
2017-10-16T05:38:50.191Z,1016.61
2017-10-16T05:39:50.174Z,1016.61
2017-10-16T05:40:50.177Z,1016.64
2017-10-16T05:41:50.176Z,1016.60
2017-10-16T05:42:50.168Z,1016.62
2017-10-16T05:43:50.168Z,1016.61
2017-10-16T05:44:50.159Z,1016.59
2017-10-16T05:45:50.150Z,1016.57
2017-10-16T05:46:50.147Z,1016.64
2017-10-16T05:47:50.139Z,1016.67
2017-10-16T05:48:50.134Z,1016.67
2017-10-16T05:49:50.128Z,1016.71
2017-10-16T05:50:50.124Z,1016.67
2017-10-16T05:51:50.121Z,1016.67
2017-10-16T05:52:50.119Z,1016.67
2017-10-16T05:53:50.106Z,1016.66
2017-10-16T05:54:50.101Z,1016.65
2017-10-16T05:55:50.097Z,1016.59
2017-10-16T05:56:50.086Z,1016.60
2017-10-16T05:57:50.083Z,1016.65
2017-10-16T05:58:50.078Z,1016.71
2017-10-16T05:59:50.074Z,1016.73
2017-10-16T06:00:50.064Z,1016.80
2017-10-16T06:01:50.057Z,1016.93
2017-10-16T06:02:50.059Z,1016.91
2017-10-16T06:03:50.049Z,1016.93
2017-10-16T06:04:50.044Z,1016.92
2017-10-16T06:05:50.038Z,1016.90
2017-10-16T06:06:50.029Z,1016.87
2017-10-16T06:07:50.027Z,1016.84
2017-10-16T06:08:50.020Z,1016.83
2017-10-16T06:09:50.015Z,1016.84
2017-10-16T06:10:50.016Z,1016.84
2017-10-16T06:11:50.005Z,1016.85
2017-10-16T06:12:50.001Z,1016.89
2017-10-16T06:13:49.992Z,1016.95
2017-10-16T06:14:49.988Z,1016.95
2017-10-16T06:15:49.982Z,1017.04
2017-10-16T06:16:49.977Z,1017.06
2017-10-16T06:17:49.972Z,1017.08
2017-10-16T06:18:49.968Z,1017.10
2017-10-16T06:19:49.961Z,1017.12
2017-10-16T06:20:49.955Z,1017.16
2017-10-16T06:21:49.950Z,1017.16
2017-10-16T06:22:49.947Z,1017.17
2017-10-16T06:23:49.941Z,1017.17
2017-10-16T06:24:49.934Z,1017.16
2017-10-16T06:25:49.931Z,1017.20
2017-10-16T06:26:49.924Z,1017.19
2017-10-16T06:27:49.916Z,1017.18
2017-10-16T06:28:49.911Z,1017.15
2017-10-16T06:29:49.905Z,1017.13
2017-10-16T06:30:49.901Z,1017.10
2017-10-16T06:31:49.894Z,1017.15
2017-10-16T06:32:49.892Z,1017.12
2017-10-16T06:33:49.890Z,1017.08
2017-10-16T06:34:49.884Z,1017.09
2017-10-16T06:35:49.871Z,1017.11
2017-10-16T06:36:49.868Z,1017.11
2017-10-16T06:37:49.863Z,1017.12
2017-10-16T06:38:49.856Z,1017.17
2017-10-16T06:39:49.850Z,1017.21
2017-10-16T06:40:49.845Z,1017.24
2017-10-16T06:41:49.840Z,1017.27
2017-10-16T06:42:49.844Z,1017.29
2017-10-16T06:43:49.828Z,1017.27
2017-10-16T06:44:49.824Z,1017.28
2017-10-16T06:45:49.816Z,1017.28
2017-10-16T06:46:49.812Z,1017.24
2017-10-16T06:47:49.808Z,1017.24
2017-10-16T06:48:49.800Z,1017.22
2017-10-16T06:49:49.796Z,1017.27
2017-10-16T06:50:49.787Z,1017.28
2017-10-16T06:51:49.785Z,1017.29
2017-10-16T06:52:49.777Z,1017.33
2017-10-16T06:53:49.773Z,1017.35
2017-10-16T06:54:49.761Z,1017.36
2017-10-16T06:55:49.762Z,1017.31
2017-10-16T06:56:49.756Z,1017.27
2017-10-16T06:57:49.750Z,1017.30
2017-10-16T06:58:49.746Z,1017.28
2017-10-16T06:59:49.742Z,1017.25
2017-10-16T07:00:49.734Z,1017.27
2017-10-16T07:01:49.727Z,1017.32
2017-10-16T07:02:49.723Z,1017.29
2017-10-16T07:03:49.717Z,1017.35
2017-10-16T07:04:49.713Z,1017.38
2017-10-16T07:05:49.707Z,1017.31
2017-10-16T07:06:49.702Z,1017.31
2017-10-16T07:07:49.695Z,1017.30
2017-10-16T07:08:49.689Z,1017.32
2017-10-16T07:09:49.687Z,1017.31
2017-10-16T07:10:49.679Z,1017.27
2017-10-16T07:11:49.676Z,1017.32
2017-10-16T07:12:49.665Z,1017.35
2017-10-16T07:13:49.661Z,1017.34
2017-10-16T07:14:49.652Z,1017.32
2017-10-16T07:15:49.642Z,1017.35
2017-10-16T07:16:49.643Z,1017.33
2017-10-16T07:17:49.638Z,1017.35
2017-10-16T07:18:49.635Z,1017.35
2017-10-16T07:19:49.633Z,1017.35
2017-10-16T07:20:49.629Z,1017.31
2017-10-16T07:21:49.618Z,1017.31
2017-10-16T07:22:49.613Z,1017.25
2017-10-16T07:23:49.606Z,1017.24
2017-10-16T07:24:49.604Z,1017.25
2017-10-16T07:25:49.596Z,1017.27
2017-10-16T07:26:49.595Z,1017.28
2017-10-16T07:27:49.584Z,1017.26
2017-10-16T07:28:49.579Z,1017.26
2017-10-16T07:29:49.575Z,1017.22
2017-10-16T07:30:49.569Z,1017.22
2017-10-16T07:31:49.563Z,1017.26
2017-10-16T07:32:49.558Z,1017.23
2017-10-16T07:33:49.558Z,1017.23
2017-10-16T07:34:49.559Z,1017.24
2017-10-16T07:35:49.546Z,1017.22
2017-10-16T07:36:49.536Z,1017.18
2017-10-16T07:37:49.531Z,1017.20
2017-10-16T07:38:49.532Z,1017.22
2017-10-16T07:39:49.523Z,1017.25
2017-10-16T07:40:49.520Z,1017.21
2017-10-16T07:41:49.531Z,1017.22
2017-10-16T07:42:49.514Z,1017.22
2017-10-16T07:43:49.498Z,1017.24
2017-10-16T07:44:49.494Z,1017.27
2017-10-16T07:45:49.490Z,1017.26
2017-10-16T07:46:49.486Z,1017.28
2017-10-16T07:47:49.477Z,1017.26
2017-10-16T07:48:49.464Z,1017.25
2017-10-16T07:49:49.476Z,1017.28
2017-10-16T07:50:49.465Z,1017.26
2017-10-16T07:51:49.461Z,1017.27
2017-10-16T07:52:49.470Z,1017.28
2017-10-16T07:53:49.450Z,1017.22
2017-10-16T07:54:49.444Z,1017.18
2017-10-16T07:55:49.439Z,1017.17
2017-10-16T07:56:49.441Z,1017.14
2017-10-16T07:57:49.432Z,1017.13
2017-10-16T07:58:49.425Z,1017.19
2017-10-16T07:59:49.418Z,1017.21
2017-10-16T08:00:49.480Z,1017.28
2017-10-16T08:01:49.409Z,1017.34
2017-10-16T08:02:49.414Z,1017.38
2017-10-16T08:03:49.400Z,1017.42
2017-10-16T08:04:49.397Z,1017.46
2017-10-16T08:05:49.390Z,1017.43
2017-10-16T08:06:49.388Z,1017.47
2017-10-16T08:07:49.379Z,1017.45
2017-10-16T08:08:49.378Z,1017.41
2017-10-16T08:09:49.370Z,1017.36
2017-10-16T08:10:49.365Z,1017.37
2017-10-16T08:11:49.364Z,1017.37
2017-10-16T08:12:49.353Z,1017.39
2017-10-16T08:13:49.354Z,1017.38
2017-10-16T08:14:49.347Z,1017.38
2017-10-16T08:15:49.344Z,1017.34
2017-10-16T08:16:49.337Z,1017.32
2017-10-16T08:17:49.331Z,1017.33
2017-10-16T08:18:49.329Z,1017.31
2017-10-16T08:19:49.324Z,1017.36
2017-10-16T08:20:49.319Z,1017.47
2017-10-16T08:21:49.316Z,1017.49
2017-10-16T08:22:49.311Z,1017.52
2017-10-16T08:23:49.304Z,1017.50
2017-10-16T08:24:49.302Z,1017.52
2017-10-16T08:25:49.300Z,1017.51
2017-10-16T08:26:49.293Z,1017.51
2017-10-16T08:27:49.289Z,1017.51
2017-10-16T08:28:49.289Z,1017.48
2017-10-16T08:29:49.289Z,1017.57
2017-10-16T08:30:49.276Z,1017.51
2017-10-16T08:31:49.268Z,1017.48
2017-10-16T08:32:49.270Z,1017.50
2017-10-16T08:33:49.259Z,1017.45
2017-10-16T08:34:49.254Z,1017.46
2017-10-16T08:35:49.254Z,1017.45
2017-10-16T08:36:49.247Z,1017.48
2017-10-16T08:37:49.241Z,1017.49
2017-10-16T08:38:49.239Z,1017.52
2017-10-16T08:39:50.140Z,1017.53
2017-10-16T08:40:49.232Z,1017.57
2017-10-16T08:41:49.224Z,1017.56
2017-10-16T08:42:49.218Z,1017.60
2017-10-16T08:43:49.214Z,1017.63
2017-10-16T08:44:49.209Z,1017.66
2017-10-16T08:45:49.207Z,1017.68
2017-10-16T08:46:49.199Z,1017.68
2017-10-16T08:47:49.195Z,1017.69
2017-10-16T08:48:49.194Z,1017.65
2017-10-16T08:49:49.191Z,1017.67
2017-10-16T08:50:49.188Z,1017.66
2017-10-16T08:51:49.183Z,1017.66
2017-10-16T08:52:49.170Z,1017.66
2017-10-16T08:53:49.172Z,1017.69
2017-10-16T08:54:49.167Z,1017.64
2017-10-16T08:55:49.163Z,1017.63
2017-10-16T08:56:49.157Z,1017.64
2017-10-16T08:57:49.154Z,1017.62
2017-10-16T08:58:49.149Z,1017.61
2017-10-16T08:59:49.667Z,1017.59
2017-10-16T09:00:49.149Z,1017.66
2017-10-16T09:01:49.136Z,1017.68
2017-10-16T09:02:49.664Z,1017.72
2017-10-16T09:03:49.201Z,1017.73
2017-10-16T09:04:49.665Z,1017.78
2017-10-16T09:05:49.119Z,1017.72
2017-10-16T09:06:49.117Z,1017.73
2017-10-16T09:07:49.111Z,1017.74
2017-10-16T09:08:49.108Z,1017.75
2017-10-16T09:09:49.104Z,1017.76
2017-10-16T09:10:49.099Z,1017.74
2017-10-16T09:11:49.094Z,1017.76
2017-10-16T09:12:49.094Z,1017.72
2017-10-16T09:13:49.086Z,1017.76
2017-10-16T09:14:49.138Z,1017.73
2017-10-16T09:15:49.076Z,1017.76
2017-10-16T09:16:49.073Z,1017.73
2017-10-16T09:17:49.069Z,1017.77
2017-10-16T09:18:49.070Z,1017.72
2017-10-16T09:19:49.061Z,1017.78
2017-10-16T09:20:49.057Z,1017.79
2017-10-16T09:21:49.055Z,1017.76
2017-10-16T09:22:49.048Z,1017.77
2017-10-16T09:23:49.050Z,1017.69
2017-10-16T09:24:49.040Z,1017.69
2017-10-16T09:25:49.035Z,1017.68
2017-10-16T09:26:49.034Z,1017.65
2017-10-16T09:27:49.026Z,1017.64
2017-10-16T09:28:49.024Z,1017.63
2017-10-16T09:29:49.025Z,1017.61
2017-10-16T09:30:49.017Z,1017.64
2017-10-16T09:31:49.008Z,1017.64
2017-10-16T09:32:49.005Z,1017.67
2017-10-16T09:33:49.007Z,1017.66
2017-10-16T09:34:48.999Z,1017.69
2017-10-16T09:35:48.995Z,1017.63
2017-10-16T09:36:48.992Z,1017.66
2017-10-16T09:37:48.987Z,1017.68
2017-10-16T09:38:48.987Z,1017.65
2017-10-16T09:39:48.975Z,1017.67
2017-10-16T09:40:48.978Z,1017.64
2017-10-16T09:41:48.959Z,1017.63
2017-10-16T09:42:48.967Z,1017.63
2017-10-16T09:43:48.959Z,1017.62
2017-10-16T09:44:48.959Z,1017.63
2017-10-16T09:45:48.952Z,1017.62
2017-10-16T09:46:48.949Z,1017.66
2017-10-16T09:47:48.944Z,1017.63
2017-10-16T09:48:48.945Z,1017.63
2017-10-16T09:49:48.937Z,1017.61
2017-10-16T09:50:48.930Z,1017.63
2017-10-16T09:51:48.929Z,1017.58
2017-10-16T09:52:48.926Z,1017.66
2017-10-16T09:53:48.922Z,1017.67
2017-10-16T09:54:48.907Z,1017.65
2017-10-16T09:55:48.913Z,1017.69
2017-10-16T09:56:48.910Z,1017.72
2017-10-16T09:57:48.905Z,1017.70
2017-10-16T09:58:48.927Z,1017.65
2017-10-16T09:59:48.899Z,1017.65
2017-10-16T10:00:48.896Z,1017.67
2017-10-16T10:01:48.891Z,1017.66
2017-10-16T10:02:48.885Z,1017.68
2017-10-16T10:03:48.879Z,1017.66
2017-10-16T10:04:48.890Z,1017.68
2017-10-16T10:05:48.873Z,1017.73
2017-10-16T10:06:48.875Z,1017.72
2017-10-16T10:07:48.867Z,1017.75
2017-10-16T10:08:48.868Z,1017.78
2017-10-16T10:09:48.857Z,1017.75
2017-10-16T10:10:48.859Z,1017.76
2017-10-16T10:11:48.849Z,1017.73
2017-10-16T10:12:48.849Z,1017.70
2017-10-16T10:13:48.847Z,1017.72
2017-10-16T10:14:48.840Z,1017.72
2017-10-16T10:15:48.833Z,1017.68
2017-10-16T10:16:48.834Z,1017.73
2017-10-16T10:17:48.856Z,1017.72
2017-10-16T10:18:48.828Z,1017.75
2017-10-16T10:19:48.821Z,1017.66
2017-10-16T10:20:48.820Z,1017.64
2017-10-16T10:21:48.817Z,1017.61
2017-10-16T10:22:48.814Z,1017.65
2017-10-16T10:23:48.808Z,1017.62
2017-10-16T10:24:48.810Z,1017.62
2017-10-16T10:25:48.803Z,1017.58
2017-10-16T10:26:48.800Z,1017.62
2017-10-16T10:27:48.793Z,1017.62
2017-10-16T10:28:48.791Z,1017.64
2017-10-16T10:29:48.789Z,1017.61
2017-10-16T10:30:48.785Z,1017.63
2017-10-16T10:31:48.782Z,1017.61
2017-10-16T10:32:48.777Z,1017.59
2017-10-16T10:33:48.777Z,1017.58
2017-10-16T10:34:48.774Z,1017.57
2017-10-16T10:35:48.785Z,1017.58
2017-10-16T10:36:48.765Z,1017.56
2017-10-16T10:37:48.764Z,1017.53
2017-10-16T10:38:48.763Z,1017.48
2017-10-16T10:39:48.755Z,1017.52
2017-10-16T10:40:48.763Z,1017.48
2017-10-16T10:41:48.749Z,1017.49
2017-10-16T10:42:48.748Z,1017.47
2017-10-16T10:43:48.743Z,1017.46
2017-10-16T10:44:48.740Z,1017.44
2017-10-16T10:45:48.737Z,1017.47
2017-10-16T10:46:48.738Z,1017.49
2017-10-16T10:47:48.730Z,1017.50
2017-10-16T10:48:48.732Z,1017.48
2017-10-16T10:49:48.732Z,1017.54
2017-10-16T10:50:48.722Z,1017.55
2017-10-16T10:51:48.726Z,1017.54
2017-10-16T10:52:48.717Z,1017.53
2017-10-16T10:53:48.715Z,1017.51
2017-10-16T10:54:48.712Z,1017.46
2017-10-16T10:55:48.713Z,1017.48
2017-10-16T10:56:48.707Z,1017.48
2017-10-16T10:57:48.703Z,1017.43
2017-10-16T10:58:48.698Z,1017.44
2017-10-16T10:59:48.700Z,1017.47
2017-10-16T11:00:48.694Z,1017.46
2017-10-16T11:01:48.696Z,1017.48
2017-10-16T11:02:48.690Z,1017.48
2017-10-16T11:03:48.686Z,1017.44
2017-10-16T11:04:48.689Z,1017.42
2017-10-16T11:05:48.685Z,1017.49
2017-10-16T11:06:48.680Z,1017.48
2017-10-16T11:07:48.683Z,1017.48
2017-10-16T11:08:48.678Z,1017.49
2017-10-16T11:09:48.677Z,1017.48
2017-10-16T11:10:48.669Z,1017.46
2017-10-16T11:11:48.668Z,1017.49
2017-10-16T11:12:48.666Z,1017.52
2017-10-16T11:13:48.667Z,1017.49
2017-10-16T11:14:48.666Z,1017.51
2017-10-16T11:15:48.669Z,1017.57
2017-10-16T11:16:48.668Z,1017.52
2017-10-16T11:17:48.666Z,1017.49
2017-10-16T11:18:48.662Z,1017.55
2017-10-16T11:19:48.663Z,1017.57
2017-10-16T11:20:48.659Z,1017.54
2017-10-16T11:21:48.657Z,1017.56
2017-10-16T11:22:48.657Z,1017.56
2017-10-16T11:23:48.655Z,1017.56
2017-10-16T11:24:48.652Z,1017.54
2017-10-16T11:25:48.654Z,1017.56
2017-10-16T11:26:49.238Z,1017.50
2017-10-16T11:27:48.653Z,1017.53
2017-10-16T11:28:48.651Z,1017.51
2017-10-16T11:29:48.653Z,1017.51
2017-10-16T11:30:48.657Z,1017.58
2017-10-16T11:31:48.653Z,1017.56
2017-10-16T11:32:48.654Z,1017.51
2017-10-16T11:33:48.652Z,1017.55
2017-10-16T11:34:48.654Z,1017.51
2017-10-16T11:35:48.653Z,1017.55
2017-10-16T11:36:48.661Z,1017.56
2017-10-16T11:37:48.654Z,1017.50
2017-10-16T11:38:48.655Z,1017.52
2017-10-16T11:39:48.655Z,1017.48
2017-10-16T11:40:48.656Z,1017.50
2017-10-16T11:41:48.657Z,1017.49
2017-10-16T11:42:48.659Z,1017.46
2017-10-16T11:43:48.656Z,1017.45
2017-10-16T11:44:48.657Z,1017.46
2017-10-16T11:45:48.654Z,1017.42
2017-10-16T11:46:48.657Z,1017.43
2017-10-16T11:47:48.663Z,1017.47
2017-10-16T11:48:48.658Z,1017.45
2017-10-16T11:49:48.660Z,1017.41
2017-10-16T11:50:48.661Z,1017.36
2017-10-16T11:51:48.662Z,1017.31
2017-10-16T11:52:48.661Z,1017.31
2017-10-16T11:53:48.663Z,1017.30
2017-10-16T11:54:48.663Z,1017.26
2017-10-16T11:55:48.664Z,1017.25
2017-10-16T11:56:48.666Z,1017.22
2017-10-16T11:57:48.665Z,1017.23
2017-10-16T11:58:48.666Z,1017.22
2017-10-16T11:59:48.665Z,1017.22
2017-10-16T12:00:48.665Z,1017.21
2017-10-16T12:01:48.666Z,1017.23
2017-10-16T12:02:48.671Z,1017.24
2017-10-16T12:03:48.669Z,1017.23
2017-10-16T12:04:48.673Z,1017.28
2017-10-16T12:05:48.673Z,1017.21